Terminal Aerodrome Forecast
Issued by NWS

Home | Current Version | Previous Version | Text Only | Print | Product List | Glossary Off
Versions: 1 2 3 4 5 6 7 8 9 10 11 12 13 14 15 16 17 18 19 20 21 22 23 24 25

000
FTUS43 KGRB 231520 AAB
TAFMTW
TAF AMD
KMTW 231520Z 2315/2412 36010G18KT P6SM BKN035
      TEMPO 2315/2318 SCT035
     FM231800 02010G14KT P6SM SCT020 BKN040
     FM240500 05012G22KT P6SM -SN OVC025
     FM240700 05013G25KT 5SM -SN OVC010
     FM240900 05016G27KT 3SM -SN OVC008
     FM241000 05016G27KT 2SM -SNPL OVC008
     FM241100 05015G26KT 3SM RASNPL OVC008=

USA.gov is the U.S. government's official web portal to all federal, state and local government web resources and services.